Date,TemperatureHighF,TemperatureAvgF,TemperatureLowF,DewpointHighF,DewpointAvgF,DewpointLowF,HumidityHigh,HumidityAvg,HumidityLow,PressureMaxIn,PressureMinIn,WindSpeedMaxMPH,WindSpeedAvgMPH,GustSpeedMaxMPH,PrecipitationSumIn
2013-1-1,18.0,8.6,-3.0,-99.9,-99.9,-99.9,0,0,100,0.00,40.00,5,1,12,0.00
2013-1-2,23.0,17.3,13.0,-99.9,-99.9,-99.9,0,0,100,0.00,40.00,8,2,14,0.00
2013-1-3,24.0,17.8,13.0,-99.9,-99.9,-99.9,0,0,100,0.00,40.00,8,2,18,0.00
2013-1-4,35.0,19.2,11.0,-99.9,-99.9,-99.9,0,0,100,0.00,40.00,6,2,18,0.00
2013-1-5,31.0,20.2,4.0,-99.9,-99.9,-99.9,0,0,100,0.00,40.00,8,2,16,0.00
2013-1-6,28.0,21.8,10.0,-99.9,-99.9,-99.9,0,0,100,0.00,40.00,6,1,13,0.00
2013-1-7,35.0,24.2,11.0,-99.9,-99.9,-99.9,0,0,100,0.00,40.00,16,6,26,0.00
2013-1-8,43.0,26.4,8.0,-99.9,-99.9,-99.9,0,0,100,0.00,40.00,13,3,23,0.00
2013-1-9,35.0,30.3,18.0,-99.9,-99.9,-99.9,0,0,100,0.00,40.00,14,5,28,0.00
2013-1-10,42.0,33.0,17.0,-99.9,-99.9,-99.9,0,0,100,0.00,40.00,9,4,16,0.12
2013-1-11,40.0,35.9,33.0,-99.9,-99.9,-99.9,0,0,100,0.00,40.00,9,3,17,0.12
2013-1-12,43.0,29.3,16.0,-99.9,-99.9,-99.9,0,0,100,0.00,40.00,17,6,35,0.00
2013-1-13,18.0,14.3,7.0,-99.9,-99.9,-99.9,0,0,100,0.00,40.00,5,1,13,0.00
2013-1-14,16.0,8.4,2.0,-99.9,-99.9,-99.9,0,0,100,0.00,40.00,7,2,15,0.00
2013-1-15,29.0,17.9,1.0,-99.9,-99.9,-99.9,0,0,100,0.00,40.00,12,5,20,0.00
2013-1-16,27.0,21.6,13.0,-99.9,-99.9,-99.9,0,0,100,0.00,40.00,15,5,22,0.03
2013-1-17,12.0,5.0,-4.0,-99.9,-99.9,-99.9,0,0,100,0.00,40.00,8,2,15,0.01
2013-1-18,23.0,13.1,-5.0,-99.9,-99.9,-99.9,0,0,100,0.00,40.00,3,1,12,0.29
2013-1-19,36.0,23.2,4.0,-99.9,-99.9,-99.9,0,0,100,0.00,40.00,10,4,29,0.02
2013-1-20,8.0,1.8,-6.0,-99.9,-99.9,-99.9,0,0,100,0.00,40.00,6,2,18,0.00
2013-1-21,-5.0,-9.8,-13.0,-99.9,-99.9,-99.9,0,0,100,0.00,40.00,9,3,20,0.00
2013-1-22,3.0,-8.6,-18.0,-99.9,-99.9,-99.9,0,0,100,0.00,40.00,5,1,12,0.00
2013-1-23,10.0,-3.1,-20.0,-99.9,-99.9,-99.9,0,0,100,0.00,40.00,7,1,17,0.00
2013-1-24,11.0,-0.3,-17.0,-99.9,-99.9,-99.9,0,0,100,0.00,40.00,6,1,10,0.01
2013-1-25,19.0,11.2,5.0,-99.9,-99.9,-99.9,0,0,100,0.00,40.00,5,2,12,0.17
2013-1-26,25.0,14.9,6.0,-99.9,-99.9,-99.9,0,0,100,0.00,40.00,7,2,10,0.01
2013-1-27,32.0,24.0,18.0,-99.9,-99.9,-99.9,0,0,100,0.00,40.00,7,3,14,0.25
2013-1-28,37.0,30.1,26.0,-99.9,-99.9,-99.9,0,0,100,0.00,40.00,5,1,10,0.38
2013-1-29,35.0,32.3,29.0,-99.9,-99.9,-99.9,0,0,100,0.00,40.00,6,2,13,0.60
2013-1-30,30.0,19.9,12.0,-99.9,-99.9,-99.9,0,0,100,0.00,40.00,12,4,24,0.24
2013-1-31,14.0,7.2,1.0,-99.9,-99.9,-99.9,0,0,100,0.00,40.00,7,3,16,0.01
2013-2-1,5.0,-2.7,-10.0,-99.9,-99.9,-99.9,0,0,100,0.00,40.00,5,1,14,0.00
2013-2-2,14.0,0.7,-13.0,-99.9,-99.9,-99.9,0,0,100,0.00,40.00,3,0,6,0.00
2013-2-3,12.0,3.2,-11.0,-99.9,-99.9,-99.9,0,0,100,0.00,40.00,10,2,20,0.00
2013-2-4,16.0,-3.0,-20.0,-99.9,-99.9,-99.9,0,0,100,0.00,40.00,3,0,12,0.00
2013-2-5,23.0,10.4,-4.0,-99.9,-99.9,-99.9,0,0,100,0.00,40.00,12,2,17,0.14
2013-2-6,24.0,12.1,-5.0,-99.9,-99.9,-99.9,0,0,100,0.00,40.00,6,1,12,0.12
2013-2-7,24.0,20.3,17.0,-99.9,-99.9,-99.9,0,0,100,0.00,40.00,8,2,21,0.03
2013-2-8,26.0,11.7,1.0,-99.9,-99.9,-99.9,0,0,100,0.00,40.00,7,1,13,0.00
2013-2-9,31.0,17.5,-1.0,-99.9,-99.9,-99.9,0,0,100,0.00,40.00,10,3,20,0.00
2013-2-10,32.0,26.7,21.0,-99.9,-99.9,-99.9,0,0,100,0.00,40.00,9,3,20,0.60
2013-2-11,33.0,27.8,19.0,-99.9,-99.9,-99.9,0,0,100,0.00,40.00,6,1,14,0.39
2013-2-12,24.0,19.1,9.0,-99.9,-99.9,-99.9,0,0,100,0.00,40.00,7,2,13,0.01
2013-2-13,38.0,24.3,9.0,-99.9,-99.9,-99.9,0,0,100,0.00,40.00,5,1,8,0.00
2013-2-14,31.0,24.4,13.0,-99.9,-99.9,-99.9,0,0,100,0.00,40.00,7,2,14,0.03
2013-2-15,20.0,11.2,-1.0,-99.9,-99.9,-99.9,0,0,100,0.00,40.00,7,2,13,0.01
2013-2-16,17.0,3.4,-12.0,-99.9,-99.9,-99.9,0,0,100,0.00,40.00,5,0,10,0.00
2013-2-17,25.0,2.3,-20.0,-99.9,-99.9,-99.9,0,0,100,0.00,40.00,9,2,15,0.00
2013-2-18,38.0,29.7,20.0,-99.9,-99.9,-99.9,0,0,100,0.00,40.00,8,2,13,0.04
2013-2-19,26.0,12.4,3.0,-99.9,-99.9,-99.9,0,0,100,0.00,40.00,13,4,23,0.16
2013-2-20,20.0,10.4,2.0,-99.9,-99.9,-99.9,0,0,100,0.00,40.00,7,2,16,0.01
2013-2-21,28.0,15.2,-2.0,-99.9,-99.9,-99.9,0,0,100,0.00,40.00,6,2,14,0.00
2013-2-22,26.0,21.2,16.0,-99.9,-99.9,-99.9,0,0,100,0.00,40.00,8,2,14,0.10
2013-2-23,35.0,22.7,11.0,-99.9,-99.9,-99.9,0,0,100,0.00,40.00,2,0,7,0.01
2013-2-24,34.0,25.6,15.0,-99.9,-99.9,-99.9,0,0,100,0.00,40.00,3,0,7,0.01
2013-2-25,36.0,29.1,23.0,-99.9,-99.9,-99.9,0,0,100,0.00,40.00,7,1,9,0.00
2013-2-26,35.0,27.5,10.0,-99.9,-99.9,-99.9,0,0,100,0.00,40.00,8,3,17,0.00
2013-2-27,32.0,28.8,27.0,-99.9,-99.9,-99.9,0,0,100,0.00,40.00,13,6,25,0.00
2013-2-28,28.0,24.5,19.0,-99.9,-99.9,-99.9,0,0,100,0.00,40.00,12,6,22,0.00
2013-3-1,29.0,19.5,9.0,-99.9,-99.9,-99.9,0,0,100,0.00,40.00,9,4,20,0.00
2013-3-2,29.0,13.3,-4.0,-99.9,-99.9,-99.9,0,0,100,0.00,40.00,8,2,15,0.00
2013-3-3,33.0,9.9,-11.0,-99.9,-99.9,-99.9,0,0,100,0.00,40.00,5,1,12,0.00
2013-3-4,35.0,18.6,-3.0,-99.9,-99.9,-99.9,0,0,100,0.00,40.00,7,2,12,0.00
2013-3-5,32.0,23.9,21.0,-99.9,-99.9,-99.9,0,0,100,0.00,40.00,9,3,18,0.00
2013-3-6,32.0,23.6,6.0,-99.9,-99.9,-99.9,0,0,100,0.00,40.00,5,1,10,0.01
2013-3-7,33.0,18.5,3.0,-99.9,-99.9,-99.9,0,0,100,0.00,40.00,5,0,8,0.01
2013-3-8,42.0,25.4,6.0,-99.9,-99.9,-99.9,0,0,100,0.00,40.00,13,3,18,0.00
2013-3-9,36.0,30.8,25.0,-99.9,-99.9,-99.9,0,0,100,0.00,40.00,8,2,14,0.27
2013-3-10,35.0,32.0,27.0,-99.9,-99.9,-99.9,0,0,100,0.00,40.00,0,0,0,0.19
2013-3-11,31.0,25.8,19.0,-99.9,-99.9,-99.9,0,0,100,0.00,40.00,9,2,20,0.32
2013-3-12,28.0,20.8,17.0,-99.9,-99.9,-99.9,0,0,100,0.00,40.00,7,2,15,0.04
2013-3-13,33.0,19.3,6.0,-99.9,-99.9,-99.9,0,0,100,0.00,40.00,6,2,14,0.03
2013-3-14,39.0,18.7,-6.0,-99.9,-99.9,-99.9,0,0,100,0.00,40.00,9,2,16,0.00
2013-3-15,33.0,27.2,15.0,-99.9,-99.9,-99.9,0,0,100,0.00,40.00,9,3,15,0.03
2013-3-16,27.0,17.2,9.0,-99.9,-99.9,-99.9,0,0,100,0.00,40.00,8,2,14,0.03
2013-3-17,29.0,11.7,-11.0,-99.9,-99.9,-99.9,0,0,100,0.00,40.00,9,2,16,0.00
2013-3-18,31.0,22.4,14.0,-99.9,-99.9,-99.9,0,0,100,0.00,40.00,8,3,17,0.20
2013-3-19,28.0,18.9,13.0,-99.9,-99.9,-99.9,0,0,100,0.00,40.00,12,5,25,0.07
2013-3-20,22.0,13.6,4.0,-99.9,-99.9,-99.9,0,0,100,0.00,40.00,8,3,18,0.01
2013-3-21,30.0,18.8,4.0,-99.9,-99.9,-99.9,0,0,100,0.00,40.00,6,1,13,0.00
2013-3-22,35.0,20.8,-3.0,-99.9,-99.9,-99.9,0,0,100,0.00,40.00,6,1,10,0.00
2013-3-23,36.0,27.4,21.0,-99.9,-99.9,-99.9,0,0,100,0.00,40.00,5,1,10,0.00
2013-3-24,33.0,26.6,20.0,-99.9,-99.9,-99.9,0,0,100,0.00,40.00,8,3,17,0.00
2013-3-25,37.0,26.2,15.0,-99.9,-99.9,-99.9,0,0,100,0.00,40.00,12,3,24,0.00
2013-3-26,40.0,30.6,22.0,-99.9,-99.9,-99.9,0,0,100,0.00,40.00,3,1,10,0.00
2013-3-27,43.0,33.2,20.0,-99.9,-99.9,-99.9,0,0,100,0.00,40.00,5,1,12,0.00
2013-3-28,47.0,28.0,10.0,-99.9,-99.9,-99.9,0,0,100,0.00,40.00,6,1,8,0.00
2013-3-29,51.0,31.2,13.0,-99.9,-99.9,-99.9,0,0,100,0.00,40.00,7,1,12,0.00
2013-3-30,37.0,33.3,25.0,-99.9,-99.9,-99.9,0,0,100,0.00,40.00,9,2,13,0.53
2013-3-31,39.0,32.2,23.0,-99.9,-99.9,-99.9,0,0,100,0.00,40.00,12,3,23,0.01
2013-4-1,31.0,23.4,14.0,-99.9,-99.9,-99.9,0,0,100,0.00,40.00,9,3,20,0.00
2013-4-2,35.0,22.1,9.0,-99.9,-99.9,-99.9,0,0,100,0.00,40.00,7,2,20,0.00
2013-4-3,44.0,23.6,3.0,-99.9,-99.9,-99.9,0,0,100,0.00,40.00,14,4,22,0.00
2013-4-4,47.0,37.3,25.0,-99.9,-99.9,-99.9,0,0,100,0.00,40.00,14,4,20,0.00
2013-4-5,42.0,29.9,16.0,-99.9,-99.9,-99.9,0,0,100,0.00,40.00,3,1,8,0.00
2013-4-6,44.0,34.3,28.0,-99.9,-99.9,-99.9,0,0,100,0.00,40.00,8,3,20,0.89
2013-4-7,42.0,34.7,30.0,-99.9,-99.9,-99.9,0,0,100,0.00,40.00,5,1,12,0.19
2013-4-8,38.0,34.5,32.0,-99.9,-99.9,-99.9,0,0,100,0.00,40.00,3,1,9,0.19
2013-4-9,37.0,34.1,28.0,-99.9,-99.9,-99.9,0,0,100,0.00,40.00,9,3,20,0.01
2013-4-10,43.0,34.3,27.0,-99.9,-99.9,-99.9,0,0,100,0.00,40.00,7,4,18,0.00
2013-4-11,36.0,30.7,26.0,-99.9,-99.9,-99.9,0,0,100,0.00,40.00,12,4,26,0.13
2013-4-12,37.0,29.1,25.0,-99.9,-99.9,-99.9,0,0,100,0.00,40.00,9,2,16,0.18
2013-4-13,39.0,29.1,18.0,-99.9,-99.9,-99.9,0,0,100,0.00,40.00,9,2,16,0.05
2013-4-14,42.0,27.8,13.0,-99.9,-99.9,-99.9,0,0,100,0.00,40.00,10,3,20,0.68
2013-4-15,45.0,36.5,32.0,-99.9,-99.9,-99.9,0,0,100,0.00,40.00,21,5,39,0.59
2013-4-16,46.0,37.4,30.0,-99.9,-99.9,-99.9,0,0,100,0.00,40.00,7,3,17,0.01
2013-4-17,43.0,34.0,23.0,-99.9,-99.9,-99.9,0,0,100,0.00,40.00,7,2,12,0.00
2013-4-18,37.0,34.0,32.0,-99.9,-99.9,-99.9,0,0,100,0.00,40.00,7,3,17,0.37
2013-4-19,33.0,29.3,25.0,-99.9,-99.9,-99.9,0,0,100,0.00,40.00,3,0,10,0.37
2013-4-20,37.0,27.1,12.0,-99.9,-99.9,-99.9,0,0,100,0.00,40.00,6,1,12,0.03
2013-4-21,40.0,30.1,16.0,-99.9,-99.9,-99.9,0,0,100,0.00,40.00,15,5,25,0.04
2013-4-22,40.0,36.7,33.0,-99.9,-99.9,-99.9,0,0,100,0.00,40.00,6,2,14,0.43
2013-4-23,40.0,32.7,23.0,-99.9,-99.9,-99.9,0,0,100,0.00,40.00,6,1,13,0.63
2013-4-24,50.0,33.0,16.0,-99.9,-99.9,-99.9,0,0,100,0.00,40.00,10,2,22,0.01
2013-4-25,49.0,37.6,29.0,-99.9,-99.9,-99.9,0,0,100,0.00,40.00,10,3,17,0.08
2013-4-26,61.0,43.6,27.0,-99.9,-99.9,-99.9,0,0,100,0.00,40.00,14,4,21,0.05
2013-4-27,71.0,49.1,30.0,-99.9,-99.9,-99.9,0,0,100,0.00,40.00,10,2,16,0.01
2013-4-28,72.0,53.7,35.0,-99.9,-99.9,-99.9,0,0,100,0.00,40.00,16,4,24,0.00
2013-4-29,73.0,56.3,44.0,-99.9,-99.9,-99.9,0,0,100,0.00,40.00,6,2,15,0.30
2013-4-30,82.0,68.3,50.0,-99.9,-99.9,-99.9,0,0,100,0.00,40.00,17,6,33,0.23
2013-5-1,53.0,45.2,34.0,-99.9,-99.9,-99.9,0,0,100,0.00,40.00,7,2,12,0.47
2013-5-2,34.0,31.6,29.0,-99.9,-99.9,-99.9,0,0,100,0.00,40.00,10,4,25,0.05
2013-5-3,34.0,31.3,28.0,-99.9,-99.9,-99.9,0,0,100,0.00,40.00,8,3,20,0.27
2013-5-4,63.0,44.8,33.0,-99.9,-99.9,-99.9,0,0,100,0.00,40.00,8,3,12,0.01
2013-5-5,75.0,52.7,35.0,-99.9,-99.9,-99.9,0,0,100,0.00,40.00,8,2,12,0.00
2013-5-6,80.0,56.3,31.0,-99.9,-99.9,-99.9,0,0,100,0.00,40.00,6,1,14,0.00
2013-5-7,83.0,59.4,38.0,-99.9,-99.9,-99.9,0,0,100,0.00,40.00,10,1,12,0.00
2013-5-8,82.0,61.8,43.0,-99.9,-99.9,-99.9,0,0,100,0.00,40.00,6,1,12,0.00
2013-5-9,57.0,46.9,34.0,-99.9,-99.9,-99.9,0,0,100,0.00,40.00,9,4,18,0.38
2013-5-10,63.0,43.9,31.0,-99.9,-99.9,-99.9,0,0,100,0.00,40.00,8,3,14,0.24
2013-5-11,44.0,38.9,33.0,-99.9,-99.9,-99.9,0,0,100,0.00,40.00,12,3,23,0.03
2013-5-12,49.0,36.4,27.0,-99.9,-99.9,-99.9,0,0,100,0.00,40.00,9,3,20,0.01
2013-5-13,61.0,42.8,21.0,-99.9,-99.9,-99.9,0,0,100,0.00,40.00,10,3,17,0.00
2013-5-14,77.0,58.2,40.0,-99.9,-99.9,-99.9,0,0,100,0.00,40.00,12,3,21,0.00
2013-5-15,77.0,63.5,51.0,-99.9,-99.9,-99.9,0,0,100,0.00,40.00,8,3,20,0.00
2013-5-16,76.0,56.7,45.0,-99.9,-99.9,-99.9,0,0,100,0.00,40.00,6,2,13,0.00
2013-5-17,76.0,57.4,47.0,-99.9,-99.9,-99.9,0,0,100,0.00,40.00,9,2,14,0.00
2013-5-18,74.0,59.8,50.0,-99.9,-99.9,-99.9,0,0,100,0.00,40.00,9,3,23,0.03
2013-5-19,85.0,70.1,56.0,-99.9,-99.9,-99.9,0,0,100,0.00,40.00,10,4,18,0.01
2013-5-20,83.0,68.5,57.0,-99.9,-99.9,-99.9,0,0,100,0.00,40.00,16,4,24,0.11
2013-5-21,72.0,61.3,52.0,-99.9,-99.9,-99.9,0,0,100,0.00,40.00,7,2,16,1.74
2013-5-22,54.0,49.4,45.0,-99.9,-99.9,-99.9,0,0,100,0.00,40.00,9,4,26,0.17
2013-5-23,54.0,43.1,33.0,-99.9,-99.9,-99.9,0,0,100,0.00,40.00,81,6,101,0.02
2013-5-24,67.0,47.7,28.0,-99.9,-99.9,-99.9,0,0,100,0.00,40.00,5,1,8,0.00
2013-5-25,71.0,55.1,38.0,-99.9,-99.9,-99.9,0,0,100,0.00,40.00,8,2,15,0.00
2013-5-26,73.0,54.6,36.0,-99.9,-99.9,-99.9,0,0,100,0.00,40.00,8,2,16,0.00
2013-5-27,73.0,57.1,40.0,-99.9,-99.9,-99.9,0,0,100,0.00,40.00,8,4,18,0.00
2013-5-28,58.0,54.5,50.0,-99.9,-99.9,-99.9,0,0,100,0.00,40.00,7,2,12,0.05
2013-5-29,80.0,63.1,52.0,-99.9,-99.9,-99.9,0,0,100,0.00,40.00,14,2,26,0.33
2013-5-30,84.0,67.9,60.0,-99.9,-99.9,-99.9,0,0,100,0.00,40.00,10,4,32,0.71
2013-5-31,83.0,66.9,56.0,-99.9,-99.9,-99.9,0,0,100,0.00,40.00,14,6,26,0.32
2013-6-1,69.0,56.6,42.0,-99.9,-99.9,-99.9,0,0,100,0.00,40.00,6,1,13,0.39
2013-6-2,60.0,46.9,38.0,-99.9,-99.9,-99.9,0,0,100,0.00,40.00,5,2,21,0.01
2013-6-3,69.0,50.9,32.0,-99.9,-99.9,-99.9,0,0,100,0.00,40.00,6,1,14,0.01
2013-6-4,64.0,51.4,38.0,-99.9,-99.9,-99.9,0,0,100,0.00,40.00,5,1,13,0.01
2013-6-5,53.0,48.9,44.0,-99.9,-99.9,-99.9,0,0,100,0.00,40.00,7,2,14,0.18
2013-6-6,58.0,51.8,47.0,-99.9,-99.9,-99.9,0,0,100,0.00,40.00,6,1,9,0.02
2013-6-7,68.0,53.2,42.0,-99.9,-99.9,-99.9,0,0,100,0.00,40.00,3,0,8,0.01
2013-6-8,72.0,58.7,49.0,-99.9,-99.9,-99.9,0,0,100,0.00,40.00,10,2,18,0.01
2013-6-9,70.0,57.7,45.0,-99.9,-99.9,-99.9,0,0,100,0.00,40.00,9,2,18,0.00
2013-6-10,80.0,66.4,55.0,-99.9,-99.9,-99.9,0,0,100,0.00,40.00,7,1,9,0.09
2013-6-11,82.0,66.3,52.0,-99.9,-99.9,-99.9,0,0,100,0.00,40.00,6,1,12,0.09
2013-6-12,84.0,65.2,46.0,-99.9,-99.9,-99.9,0,0,100,0.00,40.00,8,1,16,0.00
2013-6-13,72.0,61.8,52.0,-99.9,-99.9,-99.9,0,0,100,0.00,40.00,8,2,18,0.00
2013-6-14,82.0,62.1,42.0,-99.9,-99.9,-99.9,0,0,100,0.00,40.00,8,1,15,0.00
2013-6-15,67.0,61.6,54.0,-99.9,-99.9,-99.9,0,0,100,0.00,40.00,7,2,13,0.35
2013-6-16,81.0,64.4,54.0,-99.9,-99.9,-99.9,0,0,100,0.00,40.00,9,2,23,0.28
2013-6-17,70.0,59.4,47.0,-99.9,-99.9,-99.9,0,0,100,0.00,40.00,6,1,14,0.11
2013-6-18,75.0,56.7,37.0,-99.9,-99.9,-99.9,0,0,100,0.00,40.00,6,1,13,0.03
2013-6-19,79.0,61.3,42.0,-99.9,-99.9,-99.9,0,0,100,0.00,40.00,9,2,15,0.00
2013-6-20,77.0,62.4,52.0,-99.9,-99.9,-99.9,0,0,100,0.00,40.00,6,1,12,0.02
2013-6-22,78.0,68.8,62.0,-99.9,-99.9,-99.9,0,0,100,0.00,40.00,6,2,20,0.01
2013-6-23,83.0,72.2,63.0,-99.9,-99.9,-99.9,0,0,100,0.00,40.00,16,4,26,0.00
2013-6-24,85.0,72.3,58.0,-99.9,-99.9,-99.9,0,0,100,0.00,40.00,8,3,15,0.00
2013-6-25,90.0,77.8,63.0,-99.9,-99.9,-99.9,0,0,100,0.00,40.00,5,1,10,0.00
2013-6-26,88.0,72.1,61.0,-99.9,-99.9,-99.9,0,0,100,0.00,40.00,9,2,17,0.38
2013-6-27,83.0,68.5,62.0,-99.9,-99.9,-99.9,0,0,100,0.00,40.00,6,1,13,0.51
2013-6-28,71.0,64.4,58.0,-99.9,-99.9,-99.9,0,0,100,0.00,40.00,6,1,15,0.22
2013-6-29,72.0,62.6,54.0,-99.9,-99.9,-99.9,0,0,100,0.00,40.00,7,2,16,0.07
2013-6-30,81.0,63.4,48.0,-99.9,-99.9,-99.9,0,0,100,0.00,40.00,7,1,15,0.01
2013-7-1,83.0,65.6,48.0,-99.9,-99.9,-99.9,0,0,100,0.00,40.00,6,1,13,0.00
2013-7-2,82.0,63.4,46.0,-99.9,-99.9,-99.9,0,0,100,0.00,40.00,5,1,8,0.00
2013-7-3,85.0,64.7,45.0,-99.9,-99.9,-99.9,0,0,100,0.00,40.00,7,1,14,0.00
2013-7-4,85.0,70.0,57.0,-99.9,-99.9,-99.9,0,0,100,0.00,40.00,10,3,21,0.00
2013-7-5,87.0,71.8,56.0,-99.9,-99.9,-99.9,0,0,100,0.00,40.00,13,5,21,0.00
2013-7-6,89.0,75.1,66.0,-99.9,-99.9,-99.9,0,0,100,0.00,40.00,14,6,22,0.00
2013-7-7,86.0,75.2,67.0,-99.9,-99.9,-99.9,0,0,100,0.00,40.00,6,2,16,0.80
2013-7-8,85.0,71.0,65.0,-99.9,-99.9,-99.9,0,0,100,0.00,40.00,3,1,12,0.48
2013-7-9,79.0,70.9,65.0,-99.9,-99.9,-99.9,0,0,100,0.00,40.00,8,2,17,0.57
2013-7-10,73.0,63.6,54.0,-99.9,-99.9,-99.9,0,0,100,0.00,40.00,7,2,18,0.46
2013-7-11,82.0,65.3,51.0,-99.9,-99.9,-99.9,0,0,100,0.00,40.00,8,1,12,0.00
2013-7-12,84.0,69.7,55.0,-99.9,-99.9,-99.9,0,0,100,0.00,40.00,12,4,23,0.00
2013-7-13,86.0,72.3,63.0,-99.9,-99.9,-99.9,0,0,100,0.00,40.00,12,4,20,0.00
2013-7-14,87.0,73.3,61.0,-99.9,-99.9,-99.9,0,0,100,0.00,40.00,13,3,20,0.00
2013-7-15,89.0,74.4,61.0,-99.9,-99.9,-99.9,0,0,100,0.00,40.00,10,2,15,0.00
2013-7-16,89.0,77.6,69.0,-99.9,-99.9,-99.9,0,0,100,0.00,40.00,13,3,20,0.00
2013-7-17,89.0,76.4,66.0,-99.9,-99.9,-99.9,0,0,100,0.00,40.00,6,2,15,0.00
2013-7-18,89.0,77.5,68.0,-99.9,-99.9,-99.9,0,0,100,0.00,40.00,17,5,28,0.00
2013-7-19,81.0,74.3,59.0,-99.9,-99.9,-99.9,0,0,100,0.00,40.00,10,3,22,0.00
2013-7-20,73.0,62.6,55.0,-99.9,-99.9,-99.9,0,0,100,0.00,40.00,6,2,12,0.00
2013-7-21,72.0,60.2,51.0,-99.9,-99.9,-99.9,0,0,100,0.00,40.00,7,2,14,0.00
2013-7-22,82.0,62.4,54.0,-99.9,-99.9,-99.9,0,0,100,0.00,40.00,10,2,21,0.00
2013-7-23,68.0,57.5,48.0,-99.9,-99.9,-99.9,0,0,100,0.00,40.00,7,2,16,0.00
2013-7-24,73.0,57.1,42.0,-99.9,-99.9,-99.9,0,0,100,0.00,40.00,5,0,10,0.00
2013-7-25,79.0,63.0,47.0,-99.9,-99.9,-99.9,0,0,100,0.00,40.00,13,3,21,0.16
2013-7-26,69.0,57.3,46.0,-99.9,-99.9,-99.9,0,0,100,0.00,40.00,7,2,16,0.56
2013-7-27,54.0,48.1,44.0,-99.9,-99.9,-99.9,0,0,100,0.00,40.00,3,1,12,0.27
2013-7-28,55.0,51.4,47.0,-99.9,-99.9,-99.9,0,0,100,0.00,40.00,5,2,15,0.04
2013-7-29,74.0,58.8,42.0,-99.9,-99.9,-99.9,0,0,100,0.00,40.00,5,1,12,0.01
2013-7-30,71.0,61.2,53.0,-99.9,-99.9,-99.9,0,0,100,0.00,40.00,8,1,14,0.10
2013-7-31,73.0,63.4,53.0,-99.9,-99.9,-99.9,0,0,100,0.00,40.00,8,1,16,0.04
2013-8-1,75.0,60.2,49.0,-99.9,-99.9,-99.9,0,0,100,0.00,40.00,5,1,14,0.01
2013-8-2,73.0,60.7,51.0,-99.9,-99.9,-99.9,0,0,100,0.00,40.00,8,1,20,0.05
2013-8-3,72.0,57.7,44.0,-99.9,-99.9,-99.9,0,0,100,0.00,40.00,9,1,14,0.01
2013-8-4,71.0,55.7,41.0,-99.9,-99.9,-99.9,0,0,100,0.00,40.00,3,0,8,0.00
2013-8-5,65.0,57.5,49.0,-99.9,-99.9,-99.9,0,0,100,0.00,40.00,6,1,9,0.33
2013-8-6,75.0,64.8,57.0,-99.9,-99.9,-99.9,0,0,100,0.00,40.00,8,2,14,0.58
2013-8-7,68.0,58.7,47.0,-99.9,-99.9,-99.9,0,0,100,0.00,40.00,6,1,12,0.58
2013-8-8,71.0,56.6,41.0,-99.9,-99.9,-99.9,0,0,100,0.00,40.00,6,1,14,0.12
2013-8-9,69.0,59.5,50.0,-99.9,-99.9,-99.9,0,0,100,0.00,40.00,12,2,21,0.10
2013-8-10,70.0,56.0,43.0,-99.9,-99.9,-99.9,0,0,100,0.00,40.00,5,1,10,0.00
2013-8-11,74.0,57.3,44.0,-99.9,-99.9,-99.9,0,0,100,0.00,40.00,3,0,9,0.00
2013-8-12,72.0,59.3,45.0,-99.9,-99.9,-99.9,0,0,100,0.00,40.00,6,1,14,0.00
2013-8-13,63.0,50.0,39.0,-99.9,-99.9,-99.9,0,0,100,0.00,40.00,5,1,17,0.00
2013-8-14,66.0,51.3,37.0,-99.9,-99.9,-99.9,0,0,100,0.00,40.00,6,1,13,0.00
2013-8-15,75.0,49.7,41.0,-99.9,-99.9,-99.9,0,0,100,0.00,40.00,7,1,14,0.00
2013-8-16,76.0,56.7,43.0,-99.9,-99.9,-99.9,0,0,100,0.00,40.00,3,0,7,0.00
2013-8-18,78.0,58.9,48.0,-99.9,-99.9,-99.9,0,0,100,0.00,40.00,9,2,18,0.00
2013-8-19,77.0,59.6,52.0,-99.9,-99.9,-99.9,0,0,100,0.00,40.00,12,4,20,0.00
2013-8-20,82.0,68.9,59.0,-99.9,-99.9,-99.9,0,0,100,0.00,40.00,12,5,20,0.00
2013-8-21,83.0,70.1,57.0,-99.9,-99.9,-99.9,0,0,100,0.00,40.00,8,3,18,0.42
2013-8-22,76.0,63.4,53.0,-99.9,-99.9,-99.9,0,0,100,0.00,40.00,6,1,10,0.01
2013-8-23,78.0,61.4,45.0,-99.9,-99.9,-99.9,0,0,100,0.00,40.00,8,2,14,0.01
2013-8-24,76.0,62.7,54.0,-99.9,-99.9,-99.9,0,0,100,0.00,40.00,9,4,21,0.00
2013-8-25,88.0,78.9,68.0,-99.9,-99.9,-99.9,0,0,100,0.00,40.00,9,6,23,0.00
2013-8-26,81.0,72.4,63.0,-99.9,-99.9,-99.9,0,0,100,0.00,40.00,7,2,17,1.02
2013-8-27,78.0,68.0,65.0,-99.9,-99.9,-99.9,0,0,100,0.00,40.00,5,1,8,1.70
2013-9-1,72.0,65.6,58.0,-99.9,-99.9,-99.9,0,0,100,0.00,40.00,6,2,13,0.13
2013-9-2,61.0,52.8,42.0,-99.9,-99.9,-99.9,0,0,100,0.00,40.00,3,1,10,0.01
2013-9-3,70.0,53.7,38.0,-99.9,-99.9,-99.9,0,0,100,0.00,40.00,5,1,12,0.00
2013-9-4,70.0,59.6,47.0,-99.9,-99.9,-99.9,0,0,100,0.00,40.00,5,1,12,0.00
2013-9-5,70.0,51.1,37.0,-99.9,-99.9,-99.9,0,0,100,0.00,40.00,5,1,9,0.00
2013-9-6,76.0,60.1,48.0,-99.9,-99.9,-99.9,0,0,100,0.00,40.00,6,2,12,0.00
2013-9-7,83.0,65.9,51.0,-99.9,-99.9,-99.9,0,0,100,0.00,40.00,6,2,16,0.00
2013-9-8,66.0,54.0,39.0,-99.9,-99.9,-99.9,0,0,100,0.00,40.00,8,1,12,0.01
2013-9-9,76.0,62.3,53.0,-99.9,-99.9,-99.9,0,0,100,0.00,40.00,6,1,12,0.11
2013-9-11,76.0,64.0,55.0,-99.9,-99.9,-99.9,0,0,100,0.00,40.00,7,2,15,0.02
2013-9-12,62.0,55.2,50.0,-99.9,-99.9,-99.9,0,0,100,0.00,40.00,5,1,18,0.00
2013-9-13,58.0,49.6,33.0,-99.9,-99.9,-99.9,0,0,100,0.00,40.00,3,1,10,0.00
2013-9-14,67.0,53.0,36.0,-99.9,-99.9,-99.9,0,0,100,0.00,40.00,9,3,18,0.04
2013-9-15,52.0,47.7,35.0,-99.9,-99.9,-99.9,0,0,100,0.00,40.00,5,1,12,0.20
2013-9-16,59.0,43.1,30.0,-99.9,-99.9,-99.9,0,0,100,0.00,40.00,3,0,7,0.01
2013-9-17,67.0,47.4,33.0,-99.9,-99.9,-99.9,0,0,100,0.00,40.00,7,2,16,0.00
2013-9-18,62.0,51.9,50.0,-99.9,-99.9,-99.9,0,0,100,0.00,40.00,6,3,13,0.04
2013-9-19,75.0,67.9,63.0,-99.9,-99.9,-99.9,0,0,100,0.00,40.00,8,3,16,0.19
2013-9-20,68.0,59.3,50.0,-99.9,-99.9,-99.9,0,0,100,0.00,40.00,8,1,26,0.29
2013-9-21,50.0,45.3,34.0,-99.9,-99.9,-99.9,0,0,100,0.00,40.00,3,1,14,0.05